createdAt,value
2023-02-16T00:00:33.441Z,100034.19
2023-02-16T00:03:00.167Z,100032.63
2023-02-16T00:05:32.021Z,100026.19
2023-02-16T00:07:59.901Z,100029.41
2023-02-16T00:10:29.068Z,100031.44
2023-02-16T00:13:14.383Z,100036.69
2023-02-16T00:15:41.421Z,100031.94
2023-02-16T00:18:19.390Z,100023.75
2023-02-16T00:20:47.085Z,100020.91
2023-02-16T00:23:13.708Z,100012.16
2023-02-16T00:25:40.392Z,100022.75
2023-02-16T00:28:15.335Z,100029.78
2023-02-16T00:30:42.305Z,100020.47
2023-02-16T00:33:15.608Z,100020.19
2023-02-16T00:35:42.761Z,100026.28
2023-02-16T00:38:09.361Z,100020.84
2023-02-16T00:40:36.135Z,100024.81
2023-02-16T00:43:02.987Z,100029.97
2023-02-16T00:45:31.364Z,100034.91
2023-02-16T00:47:58.018Z,100033.06
2023-02-16T00:50:30.102Z,100031.22
2023-02-16T00:53:00.510Z,100027.59
2023-02-16T00:55:30.209Z,100017.69
2023-02-16T00:58:24.316Z,100031.75
2023-02-16T01:00:57.106Z,100025.22
2023-02-16T01:03:26.071Z,100010.28
2023-02-16T01:06:13.300Z,100017.38
2023-02-16T01:08:59.064Z,100003.75
2023-02-16T01:11:26.889Z,100008.91
2023-02-16T01:13:54.768Z,100017.69
2023-02-16T01:16:27.401Z,100022.59
2023-02-16T01:18:54.432Z,100024.53
2023-02-16T01:21:24.528Z,100026.25
2023-02-16T01:23:51.164Z,100019.66
2023-02-16T01:26:19.281Z,100013.41
2023-02-16T01:28:46.121Z,100013.47
2023-02-16T01:31:14.273Z,100002.00
2023-02-16T01:33:42.119Z,100002.81
2023-02-16T01:36:34.484Z,100006.25
2023-02-16T01:39:01.548Z,100004.97
2023-02-16T01:41:46.857Z,100004.03
2023-02-16T01:44:20.476Z,100009.81
2023-02-16T01:47:15.929Z,100007.13
2023-02-16T01:49:42.611Z,99991.88
2023-02-16T01:52:13.628Z,100001.06
2023-02-16T01:55:13.819Z,99993.53
2023-02-16T01:57:53.161Z,99998.00
2023-02-16T02:01:14.212Z,99998.47
2023-02-16T02:03:59.232Z,99998.19
2023-02-16T02:06:34.086Z,100000.06
2023-02-16T02:09:06.515Z,100000.97
2023-02-16T02:11:37.894Z,99994.34
2023-02-16T02:14:18.851Z,99998.72
2023-02-16T02:17:03.542Z,99989.06
2023-02-16T02:19:32.616Z,99985.91
2023-02-16T02:23:05.578Z,99979.25
2023-02-16T02:25:45.905Z,99967.59
2023-02-16T02:28:19.974Z,99964.88
2023-02-16T02:30:48.138Z,99964.88
2023-02-16T02:33:37.754Z,99969.63
2023-02-16T02:36:47.080Z,99976.91
2023-02-16T02:39:45.097Z,99967.25
2023-02-16T02:42:22.546Z,99963.75
2023-02-16T02:44:51.966Z,99963.38
2023-02-16T02:47:19.002Z,99951.84
2023-02-16T02:49:55.229Z,99950.38
2023-02-16T02:52:23.127Z,99950.09
2023-02-16T02:55:08.490Z,99957.16
2023-02-16T02:58:01.208Z,99950.66
2023-02-16T03:00:48.058Z,99944.94
2023-02-16T03:03:33.472Z,99946.75
2023-02-16T03:06:05.939Z,99947.44
2023-02-16T03:08:35.055Z,99963.22
2023-02-16T03:11:28.068Z,99953.19
2023-02-16T03:13:59.217Z,99948.66
2023-02-16T03:16:30.121Z,99949.09
2023-02-16T03:19:16.107Z,99945.81
2023-02-16T03:22:01.818Z,99956.13
2023-02-16T03:24:49.661Z,99961.09
2023-02-16T03:27:38.284Z,99954.88
2023-02-16T03:30:06.672Z,99955.94
2023-02-16T03:32:34.205Z,99955.53
2023-02-16T03:35:01.004Z,99952.94
2023-02-16T03:37:27.693Z,99944.44
2023-02-16T03:40:13.225Z,99943.03
2023-02-16T03:42:40.008Z,99948.91
2023-02-16T03:45:07.552Z,99945.53
2023-02-16T03:47:34.388Z,99944.75
2023-02-16T03:50:01.106Z,99940.59
2023-02-16T03:52:27.823Z,99944.97
2023-02-16T03:54:54.413Z,99937.38
2023-02-16T03:57:21.009Z,99949.28
2023-02-16T03:59:47.810Z,99943.50
2023-02-16T04:02:14.502Z,99944.91
2023-02-16T04:04:41.298Z,99931.97
2023-02-16T04:07:07.881Z,99939.84
2023-02-16T04:09:34.468Z,99948.13
2023-02-16T04:12:20.054Z,99950.63
2023-02-16T04:14:47.654Z,99952.19
2023-02-16T04:17:14.558Z,99957.75
2023-02-16T04:19:41.764Z,99940.91
2023-02-16T04:22:08.390Z,99941.09
2023-02-16T04:24:34.928Z,99945.28
2023-02-16T04:27:01.805Z,99941.72
2023-02-16T04:29:29.510Z,99939.19
2023-02-16T04:31:56.374Z,99934.09
2023-02-16T04:34:23.138Z,99945.91
2023-02-16T04:36:49.836Z,99950.78
2023-02-16T04:39:16.444Z,99954.19
2023-02-16T04:41:43.213Z,99956.88
2023-02-16T04:44:09.977Z,99953.03
2023-02-16T04:46:36.610Z,99945.38
2023-02-16T04:49:03.732Z,99955.88
2023-02-16T04:51:30.440Z,99950.78
2023-02-16T04:53:57.046Z,99965.72
2023-02-16T04:57:24.479Z,99961.06
2023-02-16T04:59:51.207Z,99957.47
2023-02-16T05:02:17.826Z,99947.16
2023-02-16T05:04:44.758Z,99945.25
2023-02-16T05:07:11.516Z,99939.81
2023-02-16T05:09:38.145Z,99931.25
2023-02-16T05:12:23.474Z,99944.31
2023-02-16T05:14:50.539Z,99937.69
2023-02-16T05:17:26.869Z,99956.50
2023-02-16T05:19:59.547Z,99947.31
2023-02-16T05:22:29.208Z,99962.72
2023-02-16T05:24:55.868Z,99948.72
2023-02-16T05:27:27.947Z,99956.50
2023-02-16T05:29:54.909Z,99948.19
2023-02-16T05:32:21.785Z,99944.59
2023-02-16T05:34:48.770Z,99946.63
2023-02-16T05:37:16.555Z,99948.06
2023-02-16T05:39:43.311Z,99952.28
2023-02-16T05:42:10.229Z,99947.16
2023-02-16T05:44:37.447Z,99944.38
2023-02-16T05:47:04.258Z,99945.28
2023-02-16T05:49:31.114Z,99943.53
2023-02-16T05:51:57.827Z,99951.84
2023-02-16T05:54:24.604Z,99945.41
2023-02-16T05:56:52.815Z,99949.75
2023-02-16T05:59:20.168Z,99941.72
2023-02-16T06:01:51.005Z,99941.50
2023-02-16T06:04:19.086Z,99944.97
2023-02-16T06:06:45.742Z,99955.25
2023-02-16T06:09:12.929Z,99945.91
2023-02-16T06:11:39.877Z,99950.00
2023-02-16T06:14:09.534Z,99949.63
2023-02-16T06:16:38.429Z,99958.66
2023-02-16T06:19:05.991Z,99962.88
2023-02-16T06:21:33.323Z,99958.63
2023-02-16T06:23:59.982Z,99956.28
2023-02-16T06:26:26.889Z,99963.44
2023-02-16T06:28:54.145Z,99953.03
2023-02-16T06:31:21.624Z,99953.63
2023-02-16T06:33:48.337Z,99950.78
2023-02-16T06:36:15.675Z,99947.69
2023-02-16T06:38:42.803Z,99948.81
2023-02-16T06:41:09.802Z,99948.28
2023-02-16T06:43:36.440Z,99948.72
2023-02-16T06:46:03.255Z,99954.97
2023-02-16T06:48:30.575Z,99959.94
2023-02-16T06:50:57.261Z,99952.38
2023-02-16T06:53:23.898Z,99953.84
2023-02-16T06:55:51.330Z,99953.34
2023-02-16T06:58:18.093Z,99957.47
2023-02-16T07:00:44.850Z,99959.06
2023-02-16T07:03:11.496Z,99966.63
2023-02-16T07:05:38.195Z,99972.81
2023-02-16T07:08:04.979Z,99960.97
2023-02-16T07:10:47.465Z,99975.16
2023-02-16T07:13:16.001Z,99982.38
2023-02-16T07:15:42.675Z,99977.59
2023-02-16T07:18:09.370Z,99982.16
2023-02-16T07:20:36.065Z,99982.06
2023-02-16T07:23:02.709Z,99986.25
2023-02-16T07:25:29.408Z,99991.13
2023-02-16T07:27:56.212Z,99991.03
2023-02-16T07:30:23.177Z,99987.25
2023-02-16T07:32:50.022Z,99991.38
2023-02-16T07:35:16.611Z,99994.84
2023-02-16T07:37:43.348Z,99986.75
2023-02-16T07:40:10.872Z,99977.13
2023-02-16T07:42:37.581Z,99991.00
2023-02-16T07:45:04.708Z,99986.56
2023-02-16T07:47:31.365Z,99976.97
2023-02-16T07:49:58.075Z,99981.25
2023-02-16T07:52:31.426Z,99974.03
2023-02-16T07:55:01.798Z,99977.97
2023-02-16T07:57:28.927Z,99976.88
2023-02-16T07:59:56.022Z,99979.44
2023-02-16T08:02:23.918Z,99980.75
2023-02-16T08:04:53.045Z,99976.75
2023-02-16T08:07:20.019Z,99964.56
2023-02-16T08:09:47.121Z,99976.09
2023-02-16T08:12:15.015Z,99986.75
2023-02-16T08:14:42.078Z,99981.06
2023-02-16T08:17:09.073Z,99988.44
2023-02-16T08:19:37.273Z,99992.16
2023-02-16T08:22:04.779Z,99989.13
2023-02-16T08:24:32.249Z,99995.34
2023-02-16T08:26:59.180Z,99986.47
2023-02-16T08:29:26.207Z,99997.66
2023-02-16T08:31:53.784Z,99994.13
2023-02-16T08:34:20.859Z,99985.09
2023-02-16T08:36:48.612Z,99991.44
2023-02-16T08:39:17.582Z,99989.19
2023-02-16T08:41:46.056Z,99993.69
2023-02-16T08:44:13.880Z,99998.56
2023-02-16T08:46:42.855Z,99996.94
2023-02-16T08:49:10.334Z,100005.81
2023-02-16T08:51:41.151Z,100000.06
2023-02-16T08:54:12.134Z,99999.09
2023-02-16T08:56:39.676Z,99996.00
2023-02-16T08:59:06.578Z,99997.03
2023-02-16T09:01:33.397Z,99996.81
2023-02-16T09:04:00.092Z,99990.13
2023-02-16T09:06:26.824Z,99999.16
2023-02-16T09:08:55.572Z,100001.84
2023-02-16T09:11:23.838Z,100001.78
2023-02-16T09:13:51.111Z,99997.00
2023-02-16T09:16:23.877Z,99998.84
2023-02-16T09:18:52.202Z,99994.03
2023-02-16T09:21:20.981Z,99989.53
2023-02-16T09:23:50.679Z,99990.50
2023-02-16T09:26:22.385Z,99991.44
2023-02-16T09:28:50.914Z,99991.91
2023-02-16T09:31:27.504Z,99995.75
2023-02-16T09:34:01.512Z,99990.25
2023-02-16T09:36:28.855Z,99996.72
2023-02-16T09:38:56.487Z,99998.03
2023-02-16T09:41:57.325Z,99992.97
2023-02-16T09:44:49.551Z,99998.00
2023-02-16T09:47:46.361Z,99992.16
2023-02-16T09:50:38.266Z,99992.59
2023-02-16T09:53:15.750Z,99986.47
2023-02-16T09:56:07.149Z,99993.16
2023-02-16T09:58:42.729Z,99993.31
2023-02-16T10:02:11.826Z,99980.16
2023-02-16T10:05:15.174Z,99989.03
2023-02-16T10:08:23.675Z,99991.72
2023-02-16T10:10:57.528Z,99990.06
2023-02-16T10:16:17.899Z,99985.53
2023-02-16T10:18:50.185Z,99976.41
2023-02-16T10:24:05.409Z,99983.47
2023-02-16T10:26:43.570Z,99969.22
2023-02-16T10:29:19.696Z,99982.91
2023-02-16T10:32:15.544Z,99982.69
2023-02-16T10:34:52.382Z,99976.97
2023-02-16T10:37:43.027Z,99981.78
2023-02-16T10:40:33.917Z,99972.94
2023-02-16T10:43:25.925Z,99971.81
2023-02-16T10:45:55.454Z,99965.16
2023-02-16T10:48:24.116Z,99971.94
2023-02-16T10:51:02.100Z,99967.06
2023-02-16T10:53:53.227Z,99962.69
2023-02-16T10:56:52.580Z,99944.06
2023-02-16T10:59:30.974Z,99949.31
2023-02-16T11:01:59.830Z,99948.22
2023-02-16T11:04:45.077Z,99957.06
2023-02-16T11:07:14.538Z,99955.25
2023-02-16T11:09:42.779Z,99950.59
2023-02-16T11:12:27.159Z,99941.19
2023-02-16T11:14:57.290Z,99943.63
2023-02-16T11:17:24.444Z,99940.91
2023-02-16T11:19:55.200Z,99944.44
2023-02-16T11:22:31.534Z,99948.00
2023-02-16T11:25:17.742Z,99935.03
2023-02-16T11:27:59.976Z,99937.00
2023-02-16T11:30:32.898Z,99933.84
2023-02-16T11:33:23.833Z,99931.13
2023-02-16T11:35:50.446Z,99930.09
2023-02-16T11:38:33.261Z,99916.69
2023-02-16T11:41:02.254Z,99920.63
2023-02-16T11:43:31.615Z,99921.91
2023-02-16T11:46:03.707Z,99917.16
2023-02-16T11:48:32.870Z,99918.72
2023-02-16T11:51:03.419Z,99910.59
2023-02-16T11:53:33.367Z,99912.16
2023-02-16T11:56:29.689Z,99901.72
2023-02-16T11:59:04.027Z,99894.59
2023-02-16T12:02:21.813Z,99901.44
2023-02-16T12:05:08.568Z,99896.28
2023-02-16T12:08:22.620Z,99890.78
2023-02-16T12:11:28.645Z,99875.28
2023-02-16T12:14:19.277Z,99882.78
2023-02-16T12:17:13.257Z,99868.81
2023-02-16T12:19:42.978Z,99877.81
2023-02-16T12:22:27.028Z,99869.16
2023-02-16T12:25:04.138Z,99868.84
2023-02-16T12:27:39.349Z,99873.75
2023-02-16T12:30:27.185Z,99870.31
2023-02-16T12:33:23.722Z,99857.38
2023-02-16T12:36:03.279Z,99862.47
2023-02-16T12:38:46.678Z,99859.59
2023-02-16T12:41:52.851Z,99855.19
2023-02-16T12:44:28.716Z,99860.13
2023-02-16T12:47:03.735Z,99849.78
2023-02-16T12:49:59.140Z,99844.72
2023-02-16T12:52:47.703Z,99851.84
2023-02-16T12:55:39.964Z,99851.41
2023-02-16T12:58:17.089Z,99847.66
2023-02-16T13:00:58.908Z,99840.53
2023-02-16T13:03:46.701Z,99844.06
2023-02-16T13:06:51.153Z,99839.88
2023-02-16T13:09:29.759Z,99835.69
2023-02-16T13:12:05.713Z,99827.34
2023-02-16T13:14:36.531Z,99835.59
2023-02-16T13:17:09.187Z,99830.88
2023-02-16T13:19:36.114Z,99827.63
2023-02-16T13:22:44.501Z,99833.72
2023-02-16T13:25:41.329Z,99833.19
2023-02-16T13:28:47.384Z,99823.97
2023-02-16T13:31:37.286Z,99829.81
2023-02-16T13:34:36.243Z,99824.81
2023-02-16T13:37:17.319Z,99822.81
2023-02-16T13:40:14.911Z,99826.31
2023-02-16T13:43:21.626Z,99824.53
2023-02-16T13:45:54.120Z,99822.25
2023-02-16T13:48:46.554Z,99809.16
2023-02-16T13:51:17.137Z,99816.25
2023-02-16T13:53:52.475Z,99805.81
2023-02-16T13:56:37.483Z,99815.41
2023-02-16T13:59:37.176Z,99802.06
2023-02-16T14:02:10.369Z,99790.31
2023-02-16T14:04:57.642Z,99792.63
2023-02-16T14:07:38.110Z,99790.31
2023-02-16T14:10:05.614Z,99779.84
2023-02-16T14:12:38.225Z,99769.91
2023-02-16T14:15:16.729Z,99776.84
2023-02-16T14:17:46.655Z,99783.84
2023-02-16T14:20:34.114Z,99778.72
2023-02-16T14:23:03.371Z,99780.50
2023-02-16T14:25:34.782Z,99784.03
2023-02-16T14:28:26.476Z,99779.91
2023-02-16T14:30:58.885Z,99780.00
2023-02-16T14:33:41.516Z,99774.84
2023-02-16T14:36:26.404Z,99781.13
2023-02-16T14:38:55.464Z,99784.25
2023-02-16T14:41:49.234Z,99788.00
2023-02-16T14:44:30.175Z,99784.44
2023-02-16T14:47:37.508Z,99785.69
2023-02-16T14:50:32.426Z,99786.75
2023-02-16T14:53:19.524Z,99795.22
2023-02-16T14:56:01.810Z,99786.34
2023-02-16T14:58:38.500Z,99789.66
2023-02-16T15:01:14.653Z,99796.34
2023-02-16T15:03:52.869Z,99799.25
2023-02-16T15:06:50.067Z,99784.44
2023-02-16T15:09:26.847Z,99785.88
2023-02-16T15:12:24.733Z,99801.22
2023-02-16T15:15:00.631Z,99795.69
2023-02-16T15:17:36.793Z,99797.66
2023-02-16T15:20:29.996Z,99786.47
2023-02-16T15:23:02.770Z,99787.22
2023-02-16T15:25:35.603Z,99778.44
2023-02-16T15:28:23.475Z,99786.00
2023-02-16T15:30:52.437Z,99784.91
2023-02-16T15:33:42.896Z,99778.16
2023-02-16T15:36:14.973Z,99771.38
2023-02-16T15:39:03.373Z,99764.31
2023-02-16T15:41:33.285Z,99759.50
2023-02-16T15:44:02.141Z,99760.06
2023-02-16T15:46:44.026Z,99762.78
2023-02-16T15:49:23.259Z,99748.66
2023-02-16T15:51:58.762Z,99743.88
2023-02-16T15:54:32.492Z,99727.50
2023-02-16T15:57:02.559Z,99731.59
2023-02-16T15:59:45.154Z,99737.56
2023-02-16T16:02:25.158Z,99732.53
2023-02-16T16:04:56.857Z,99734.44
2023-02-16T16:07:34.220Z,99736.06
2023-02-16T16:10:01.108Z,99724.16
2023-02-16T16:12:28.441Z,99738.56
2023-02-16T16:14:57.407Z,99745.06
2023-02-16T16:17:30.254Z,99745.38
2023-02-16T16:19:58.611Z,99741.56
2023-02-16T16:22:37.122Z,99734.28
2023-02-16T16:25:35.719Z,99728.81
2023-02-16T16:28:34.526Z,99747.31
2023-02-16T16:31:12.490Z,99745.25
2023-02-16T16:33:59.590Z,99729.75
2023-02-16T16:37:04.374Z,99736.44
2023-02-16T16:39:33.093Z,99731.22
2023-02-16T16:42:24.286Z,99745.56
2023-02-16T16:45:00.492Z,99747.59
2023-02-16T16:47:39.265Z,99748.25
2023-02-16T16:50:30.802Z,99745.63
2023-02-16T16:52:58.308Z,99746.09
2023-02-16T16:55:38.131Z,99748.63
2023-02-16T16:58:06.953Z,99748.69
2023-02-16T17:00:42.652Z,99749.47
2023-02-16T17:03:14.128Z,99744.97
2023-02-16T17:05:46.855Z,99744.97
2023-02-16T17:08:13.442Z,99757.25
2023-02-16T17:10:41.628Z,99750.16
2023-02-16T17:13:14.269Z,99754.34
2023-02-16T17:15:50.244Z,99757.81
2023-02-16T17:18:19.245Z,99755.75
2023-02-16T17:20:46.541Z,99759.56
2023-02-16T17:23:15.446Z,99759.69
2023-02-16T17:25:43.165Z,99755.94
2023-02-16T17:28:11.170Z,99747.72
2023-02-16T17:30:38.000Z,99744.75
2023-02-16T17:33:06.853Z,99751.56
2023-02-16T17:35:33.733Z,99755.16
2023-02-16T17:38:07.139Z,99765.16
2023-02-16T17:40:33.939Z,99766.38
2023-02-16T17:43:00.584Z,99770.41
2023-02-16T17:45:27.277Z,99780.19
2023-02-16T17:47:53.884Z,99781.88
2023-02-16T17:50:21.292Z,99785.31
2023-02-16T17:52:47.891Z,99779.38
2023-02-16T17:55:14.846Z,99783.22
2023-02-16T17:57:41.906Z,99775.03
2023-02-16T18:00:09.945Z,99785.91
2023-02-16T18:02:36.645Z,99784.09
2023-02-16T18:05:07.110Z,99779.38
2023-02-16T18:07:34.132Z,99773.66
2023-02-16T18:10:04.239Z,99783.59
2023-02-16T18:12:30.934Z,99775.03
2023-02-16T18:14:57.761Z,99767.59
2023-02-16T18:17:24.520Z,99779.06
2023-02-16T18:19:51.194Z,99783.84
2023-02-16T18:22:18.158Z,99769.19
2023-02-16T18:24:44.882Z,99767.81
2023-02-16T18:27:15.245Z,99769.19
2023-02-16T18:29:41.897Z,99764.63
2023-02-16T18:32:08.478Z,99762.22
2023-02-16T18:34:35.747Z,99764.47
2023-02-16T18:37:02.599Z,99757.38
2023-02-16T18:39:29.369Z,99756.25
2023-02-16T18:42:00.405Z,99743.94
2023-02-16T18:44:27.430Z,99749.19
2023-02-16T18:46:54.093Z,99744.84
2023-02-16T18:49:20.909Z,99733.66
2023-02-16T18:51:47.579Z,99739.09
2023-02-16T18:54:14.243Z,99741.28
2023-02-16T18:56:41.518Z,99730.22
2023-02-16T18:59:08.127Z,99738.84
2023-02-16T19:01:39.932Z,99734.72
2023-02-16T19:04:06.871Z,99729.91
2023-02-16T19:06:33.868Z,99728.66
2023-02-16T19:09:01.838Z,99726.63
2023-02-16T19:11:31.282Z,99726.22
2023-02-16T19:13:58.229Z,99731.97
2023-02-16T19:16:24.967Z,99728.44
2023-02-16T19:18:51.628Z,99727.72
2023-02-16T19:21:18.639Z,99726.28
2023-02-16T19:23:45.962Z,99723.44
2023-02-16T19:26:14.889Z,99716.97
2023-02-16T19:28:42.447Z,99717.47
2023-02-16T19:31:17.264Z,99720.25
2023-02-16T19:33:43.972Z,99717.94
2023-02-16T19:36:12.914Z,99719.53
2023-02-16T19:38:40.059Z,99709.75
2023-02-16T19:41:22.825Z,99707.97
2023-02-16T19:43:49.706Z,99697.88
2023-02-16T19:46:16.358Z,99702.78
2023-02-16T19:48:43.096Z,99695.25
2023-02-16T19:51:10.548Z,99701.69
2023-02-16T19:53:38.508Z,99700.38
2023-02-16T19:56:10.245Z,99699.78
2023-02-16T19:58:37.029Z,99700.03
2023-02-16T20:01:10.383Z,99707.19
2023-02-16T20:03:37.678Z,99698.78
2023-02-16T20:06:24.085Z,99689.38
2023-02-16T20:08:53.064Z,99687.56
2023-02-16T20:11:21.800Z,99674.88
2023-02-16T20:13:48.824Z,99674.56
2023-02-16T20:16:16.916Z,99674.47
2023-02-16T20:18:44.168Z,99675.66
2023-02-16T20:21:16.273Z,99668.84
2023-02-16T20:23:43.844Z,99671.13
2023-02-16T20:26:13.432Z,99674.81
2023-02-16T20:28:40.604Z,99663.09
2023-02-16T20:31:17.322Z,99662.81
2023-02-16T20:33:44.719Z,99667.53
2023-02-16T20:36:12.073Z,99661.38
2023-02-16T20:38:39.392Z,99654.72
2023-02-16T20:41:06.307Z,99659.03
2023-02-16T20:43:33.818Z,99653.00
2023-02-16T20:46:05.342Z,99662.91
2023-02-16T20:48:36.834Z,99658.19
2023-02-16T20:51:06.172Z,99659.91
2023-02-16T20:53:33.956Z,99662.66
2023-02-16T20:56:07.644Z,99653.34
2023-02-16T20:58:36.275Z,99658.53
2023-02-16T21:01:15.276Z,99661.84
2023-02-16T21:03:42.386Z,99654.00
2023-02-16T21:06:09.192Z,99653.19
2023-02-16T21:08:36.353Z,99655.59
2023-02-16T21:11:05.574Z,99648.47
2023-02-16T21:13:33.668Z,99645.13
2023-02-16T21:16:01.272Z,99630.16
2023-02-16T21:18:28.563Z,99648.31
2023-02-16T21:20:55.645Z,99641.63
2023-02-16T21:23:23.748Z,99642.63
2023-02-16T21:25:51.161Z,99645.31
2023-02-16T21:28:19.553Z,99646.72
2023-02-16T21:30:46.980Z,99638.28
2023-02-16T21:33:14.275Z,99634.94
2023-02-16T21:35:41.389Z,99630.22
2023-02-16T21:38:08.679Z,99632.59
2023-02-16T21:40:56.001Z,99644.00
2023-02-16T21:43:24.512Z,99641.72
2023-02-16T21:46:06.630Z,99633.53
2023-02-16T21:48:49.197Z,99628.81
2023-02-16T21:51:21.546Z,99636.13
2023-02-16T21:53:49.079Z,99623.22
2023-02-16T21:56:28.987Z,99628.88
2023-02-16T21:58:56.758Z,99626.38
2023-02-16T22:01:30.094Z,99626.56
2023-02-16T22:04:00.213Z,99625.81
2023-02-16T22:06:30.982Z,99611.81
2023-02-16T22:08:59.211Z,99614.06
2023-02-16T22:11:27.011Z,99608.06
2023-02-16T22:13:55.998Z,99609.66
2023-02-16T22:16:24.172Z,99604.44
2023-02-16T22:19:07.402Z,99603.09
2023-02-16T22:21:39.029Z,99605.53
2023-02-16T22:24:06.544Z,99600.00
2023-02-16T22:26:35.437Z,99605.06
2023-02-16T22:29:04.227Z,99604.69
2023-02-16T22:31:31.713Z,99606.09
2023-02-16T22:34:01.219Z,99607.09
2023-02-16T22:36:28.448Z,99602.91
2023-02-16T22:38:56.308Z,99601.59
2023-02-16T22:41:23.990Z,99603.13
2023-02-16T22:43:59.479Z,99603.84
2023-02-16T22:46:28.493Z,99593.66
2023-02-16T22:48:58.798Z,99600.59
2023-02-16T22:51:28.041Z,99593.66
2023-02-16T22:53:58.918Z,99589.28
2023-02-16T22:56:30.445Z,99585.78
2023-02-16T22:58:58.674Z,99582.03
2023-02-16T23:01:27.403Z,99591.28
2023-02-16T23:03:58.473Z,99596.13
2023-02-16T23:06:29.817Z,99586.56
2023-02-16T23:08:59.888Z,99591.06
2023-02-16T23:11:28.407Z,99594.81
2023-02-16T23:13:55.973Z,99589.13
2023-02-16T23:16:25.127Z,99582.75
2023-02-16T23:18:54.449Z,99582.84
2023-02-16T23:21:24.775Z,99570.84
2023-02-16T23:23:52.913Z,99571.63
2023-02-16T23:26:22.161Z,99578.50
2023-02-16T23:28:54.078Z,99583.50
2023-02-16T23:31:21.872Z,99583.50
2023-02-16T23:33:52.067Z,99579.06
2023-02-16T23:36:19.190Z,99576.47
2023-02-16T23:38:49.549Z,99587.44
2023-02-16T23:41:17.928Z,99582.44
2023-02-16T23:43:45.554Z,99579.91
2023-02-16T23:46:12.700Z,99579.25
2023-02-16T23:48:40.040Z,99579.06
2023-02-16T23:51:06.888Z,99574.53
2023-02-16T23:53:35.677Z,99572.78
2023-02-16T23:56:06.743Z,99567.75
2023-02-16T23:58:37.695Z,99567.75
